sensor_id;sensor_type;location;lat;lon;timestamp;pressure;altitude;pressure_sealevel;temperature;humidity
38718;BME280;24468;52.128;9.278;2023-06-26T00:00:15;100546.91;;;21.03;100.00
38718;BME280;24468;52.128;9.278;2023-06-26T00:02:41;100548.59;;;21.15;100.00
38718;BME280;24468;52.128;9.278;2023-06-26T00:05:06;100557.59;;;21.27;100.00
38718;BME280;24468;52.128;9.278;2023-06-26T00:07:32;100552.41;;;21.33;100.00
38718;BME280;24468;52.128;9.278;2023-06-26T00:10:03;100551.25;;;21.26;100.00
38718;BME280;24468;52.128;9.278;2023-06-26T00:12:29;100540.44;;;21.35;100.00
38718;BME280;24468;52.128;9.278;2023-06-26T00:14:55;100542.13;;;21.47;100.00
38718;BME280;24468;52.128;9.278;2023-06-26T00:17:21;100539.81;;;21.52;100.00
38718;BME280;24468;52.128;9.278;2023-06-26T00:19:47;100544.50;;;21.71;100.00
38718;BME280;24468;52.128;9.278;2023-06-26T00:22:13;100539.75;;;21.83;100.00
38718;BME280;24468;52.128;9.278;2023-06-26T00:24:39;100535.88;;;21.85;100.00
38718;BME280;24468;52.128;9.278;2023-06-26T00:27:04;100538.66;;;21.95;100.00
38718;BME280;24468;52.128;9.278;2023-06-26T00:29:30;100534.19;;;22.04;100.00
38718;BME280;24468;52.128;9.278;2023-06-26T00:31:56;100539.09;;;22.00;100.00
38718;BME280;24468;52.128;9.278;2023-06-26T00:34:21;100535.00;;;21.85;100.00
38718;BME280;24468;52.128;9.278;2023-06-26T00:36:47;100527.91;;;21.82;100.00
38718;BME280;24468;52.128;9.278;2023-06-26T00:39:12;100534.44;;;21.41;100.00
38718;BME280;24468;52.128;9.278;2023-06-26T00:41:38;100527.69;;;21.54;100.00
38718;BME280;24468;52.128;9.278;2023-06-26T00:44:04;100526.44;;;21.59;100.00
38718;BME280;24468;52.128;9.278;2023-06-26T00:46:30;100533.94;;;21.66;100.00
38718;BME280;24468;52.128;9.278;2023-06-26T00:48:59;100528.31;;;21.68;100.00
38718;BME280;24468;52.128;9.278;2023-06-26T00:51:27;100525.16;;;21.72;100.00
38718;BME280;24468;52.128;9.278;2023-06-26T00:53:53;100529.91;;;21.70;100.00
38718;BME280;24468;52.128;9.278;2023-06-26T00:56:20;100512.88;;;21.67;100.00
38718;BME280;24468;52.128;9.278;2023-06-26T00:58:45;100513.84;;;21.66;100.00
38718;BME280;24468;52.128;9.278;2023-06-26T01:01:12;100510.53;;;21.72;100.00
38718;BME280;24468;52.128;9.278;2023-06-26T01:03:44;100515.78;;;21.75;100.00
38718;BME280;24468;52.128;9.278;2023-06-26T01:06:14;100511.28;;;21.74;100.00
38718;BME280;24468;52.128;9.278;2023-06-26T01:08:41;100502.63;;;21.79;100.00
38718;BME280;24468;52.128;9.278;2023-06-26T01:11:08;100508.25;;;21.77;100.00
38718;BME280;24468;52.128;9.278;2023-06-26T01:13:34;100503.81;;;21.86;100.00
38718;BME280;24468;52.128;9.278;2023-06-26T01:16:01;100504.50;;;21.88;100.00
38718;BME280;24468;52.128;9.278;2023-06-26T01:18:28;100504.50;;;21.88;100.00
38718;BME280;24468;52.128;9.278;2023-06-26T01:20:54;100500.50;;;21.92;100.00
38718;BME280;24468;52.128;9.278;2023-06-26T01:23:55;100506.56;;;21.86;100.00
38718;BME280;24468;52.128;9.278;2023-06-26T01:26:23;100487.75;;;21.81;100.00
38718;BME280;24468;52.128;9.278;2023-06-26T01:28:53;100484.28;;;21.79;100.00
38718;BME280;24468;52.128;9.278;2023-06-26T01:31:19;100486.44;;;21.85;100.00
38718;BME280;24468;52.128;9.278;2023-06-26T01:33:45;100485.56;;;21.85;100.00
38718;BME280;24468;52.128;9.278;2023-06-26T01:36:11;100480.22;;;21.73;100.00
38718;BME280;24468;52.128;9.278;2023-06-26T01:38:37;100469.69;;;21.79;100.00
38718;BME280;24468;52.128;9.278;2023-06-26T01:41:04;100475.28;;;21.77;100.00
38718;BME280;24468;52.128;9.278;2023-06-26T01:44:08;100472.56;;;21.87;100.00
38718;BME280;24468;52.128;9.278;2023-06-26T01:46:43;100473.16;;;21.90;100.00
38718;BME280;24468;52.128;9.278;2023-06-26T01:52:09;100467.09;;;21.87;100.00
38718;BME280;24468;52.128;9.278;2023-06-26T01:55:05;100464.47;;;21.75;100.00
38718;BME280;24468;52.128;9.278;2023-06-26T01:57:35;100466.03;;;21.68;100.00
38718;BME280;24468;52.128;9.278;2023-06-26T02:00:03;100465.91;;;21.70;100.00
38718;BME280;24468;52.128;9.278;2023-06-26T02:02:29;100462.00;;;21.72;100.00
38718;BME280;24468;52.128;9.278;2023-06-26T02:04:55;100464.75;;;21.72;100.00
38718;BME280;24468;52.128;9.278;2023-06-26T02:07:20;100463.69;;;21.64;100.00
38718;BME280;24468;52.128;9.278;2023-06-26T02:09:46;100459.06;;;21.45;100.00
38718;BME280;24468;52.128;9.278;2023-06-26T02:12:11;100460.09;;;21.53;100.00
38718;BME280;24468;52.128;9.278;2023-06-26T02:14:37;100451.97;;;21.52;100.00
38718;BME280;24468;52.128;9.278;2023-06-26T02:17:02;100458.16;;;21.44;100.00
38718;BME280;24468;52.128;9.278;2023-06-26T02:19:28;100452.69;;;21.14;100.00
38718;BME280;24468;52.128;9.278;2023-06-26T02:21:54;100450.00;;;21.23;100.00
38718;BME280;24468;52.128;9.278;2023-06-26T02:24:19;100448.41;;;21.21;100.00
38718;BME280;24468;52.128;9.278;2023-06-26T02:26:45;100447.38;;;21.22;100.00
38718;BME280;24468;52.128;9.278;2023-06-26T02:29:12;100441.50;;;21.26;100.00
38718;BME280;24468;52.128;9.278;2023-06-26T02:31:37;100447.72;;;21.28;100.00
38718;BME280;24468;52.128;9.278;2023-06-26T02:34:03;100437.91;;;21.36;100.00
38718;BME280;24468;52.128;9.278;2023-06-26T02:36:29;100439.53;;;21.38;100.00
38718;BME280;24468;52.128;9.278;2023-06-26T02:38:55;100442.53;;;21.35;100.00
38718;BME280;24468;52.128;9.278;2023-06-26T02:41:21;100449.03;;;21.34;100.00
38718;BME280;24468;52.128;9.278;2023-06-26T02:43:46;100441.22;;;21.29;100.00
38718;BME280;24468;52.128;9.278;2023-06-26T02:46:12;100442.47;;;21.16;100.00
38718;BME280;24468;52.128;9.278;2023-06-26T02:48:37;100432.19;;;21.08;100.00
38718;BME280;24468;52.128;9.278;2023-06-26T02:51:03;100436.81;;;20.77;100.00
38718;BME280;24468;52.128;9.278;2023-06-26T02:53:28;100437.28;;;20.61;100.00
38718;BME280;24468;52.128;9.278;2023-06-26T02:55:54;100432.09;;;20.58;100.00
38718;BME280;24468;52.128;9.278;2023-06-26T02:58:19;100428.34;;;20.59;100.00
38718;BME280;24468;52.128;9.278;2023-06-26T03:00:45;100426.66;;;20.47;100.00
38718;BME280;24468;52.128;9.278;2023-06-26T03:03:10;100419.84;;;20.62;100.00
38718;BME280;24468;52.128;9.278;2023-06-26T03:05:38;100418.69;;;20.64;100.00
38718;BME280;24468;52.128;9.278;2023-06-26T03:08:04;100418.09;;;20.82;100.00
38718;BME280;24468;52.128;9.278;2023-06-26T03:10:29;100415.06;;;20.85;100.00
38718;BME280;24468;52.128;9.278;2023-06-26T03:12:55;100422.16;;;20.87;100.00
38718;BME280;24468;52.128;9.278;2023-06-26T03:15:20;100415.38;;;20.92;100.00
38718;BME280;24468;52.128;9.278;2023-06-26T03:17:46;100417.97;;;20.93;100.00
38718;BME280;24468;52.128;9.278;2023-06-26T03:20:11;100411.06;;;20.99;100.00
38718;BME280;24468;52.128;9.278;2023-06-26T03:22:37;100411.81;;;21.10;100.00
38718;BME280;24468;52.128;9.278;2023-06-26T03:25:03;100418.28;;;21.00;100.00
38718;BME280;24468;52.128;9.278;2023-06-26T03:27:30;100416.06;;;21.24;100.00
38718;BME280;24468;52.128;9.278;2023-06-26T03:29:55;100415.56;;;21.50;100.00
38718;BME280;24468;52.128;9.278;2023-06-26T03:32:21;100410.41;;;21.57;100.00
38718;BME280;24468;52.128;9.278;2023-06-26T03:34:47;100408.50;;;21.57;100.00
38718;BME280;24468;52.128;9.278;2023-06-26T03:37:12;100407.22;;;21.51;100.00
38718;BME280;24468;52.128;9.278;2023-06-26T03:39:38;100410.09;;;21.60;100.00
38718;BME280;24468;52.128;9.278;2023-06-26T03:42:03;100404.91;;;21.57;100.00
38718;BME280;24468;52.128;9.278;2023-06-26T03:44:29;100410.06;;;21.50;100.00
38718;BME280;24468;52.128;9.278;2023-06-26T03:46:56;100402.13;;;21.47;100.00
38718;BME280;24468;52.128;9.278;2023-06-26T03:49:22;100403.72;;;21.49;100.00
38718;BME280;24468;52.128;9.278;2023-06-26T03:51:48;100404.09;;;21.25;100.00
38718;BME280;24468;52.128;9.278;2023-06-26T03:54:13;100404.34;;;21.13;100.00
38718;BME280;24468;52.128;9.278;2023-06-26T03:56:39;100406.22;;;21.22;100.00
38718;BME280;24468;52.128;9.278;2023-06-26T03:59:04;100394.00;;;21.26;100.00
38718;BME280;24468;52.128;9.278;2023-06-26T04:01:30;100403.84;;;21.38;100.00
38718;BME280;24468;52.128;9.278;2023-06-26T04:03:55;100393.47;;;21.51;100.00
38718;BME280;24468;52.128;9.278;2023-06-26T04:06:21;100398.25;;;21.59;100.00
38718;BME280;24468;52.128;9.278;2023-06-26T04:08:46;100394.94;;;21.65;100.00
38718;BME280;24468;52.128;9.278;2023-06-26T04:11:12;100387.16;;;21.90;100.00
38718;BME280;24468;52.128;9.278;2023-06-26T04:13:37;100389.75;;;22.01;100.00
38718;BME280;24468;52.128;9.278;2023-06-26T04:16:03;100390.63;;;21.92;100.00
38718;BME280;24468;52.128;9.278;2023-06-26T04:18:29;100389.88;;;21.90;100.00
38718;BME280;24468;52.128;9.278;2023-06-26T04:21:12;100386.09;;;22.10;100.00
38718;BME280;24468;52.128;9.278;2023-06-26T04:23:39;100382.81;;;21.97;100.00
38718;BME280;24468;52.128;9.278;2023-06-26T04:26:06;100374.97;;;22.02;100.00
38718;BME280;24468;52.128;9.278;2023-06-26T04:28:33;100384.97;;;22.03;100.00
38718;BME280;24468;52.128;9.278;2023-06-26T04:30:59;100376.31;;;22.08;100.00
38718;BME280;24468;52.128;9.278;2023-06-26T04:33:26;100378.59;;;22.12;100.00
38718;BME280;24468;52.128;9.278;2023-06-26T04:35:52;100375.53;;;22.15;100.00
38718;BME280;24468;52.128;9.278;2023-06-26T04:38:19;100375.56;;;22.25;100.00
38718;BME280;24468;52.128;9.278;2023-06-26T04:40:44;100377.03;;;22.00;100.00
38718;BME280;24468;52.128;9.278;2023-06-26T04:43:10;100375.16;;;22.20;100.00
38718;BME280;24468;52.128;9.278;2023-06-26T04:45:36;100369.56;;;22.96;100.00
38718;BME280;24468;52.128;9.278;2023-06-26T04:48:03;100377.22;;;23.02;100.00
38718;BME280;24468;52.128;9.278;2023-06-26T04:50:30;100369.63;;;22.77;100.00
38718;BME280;24468;52.128;9.278;2023-06-26T04:52:56;100365.78;;;22.97;100.00
38718;BME280;24468;52.128;9.278;2023-06-26T04:55:24;100363.41;;;23.12;100.00
38718;BME280;24468;52.128;9.278;2023-06-26T04:57:50;100362.84;;;23.08;100.00
38718;BME280;24468;52.128;9.278;2023-06-26T05:00:16;100358.09;;;23.01;100.00
38718;BME280;24468;52.128;9.278;2023-06-26T05:02:41;100361.72;;;23.29;100.00
38718;BME280;24468;52.128;9.278;2023-06-26T05:05:07;100356.75;;;23.78;100.00
38718;BME280;24468;52.128;9.278;2023-06-26T05:07:33;100359.25;;;23.71;100.00
38718;BME280;24468;52.128;9.278;2023-06-26T05:09:58;100359.78;;;24.11;100.00
38718;BME280;24468;52.128;9.278;2023-06-26T05:12:24;100355.53;;;24.16;100.00
38718;BME280;24468;52.128;9.278;2023-06-26T05:14:49;100358.28;;;24.42;100.00
38718;BME280;24468;52.128;9.278;2023-06-26T05:17:15;100346.72;;;24.65;100.00
38718;BME280;24468;52.128;9.278;2023-06-26T05:19:41;100342.75;;;24.68;100.00
38718;BME280;24468;52.128;9.278;2023-06-26T05:22:07;100347.41;;;24.67;100.00
38718;BME280;24468;52.128;9.278;2023-06-26T05:24:38;100342.88;;;24.92;100.00
38718;BME280;24468;52.128;9.278;2023-06-26T05:27:04;100338.63;;;24.63;100.00
38718;BME280;24468;52.128;9.278;2023-06-26T05:29:31;100344.84;;;24.66;100.00
38718;BME280;24468;52.128;9.278;2023-06-26T05:31:57;100337.34;;;24.50;100.00
38718;BME280;24468;52.128;9.278;2023-06-26T05:34:24;100349.63;;;24.37;100.00
38718;BME280;24468;52.128;9.278;2023-06-26T05:36:51;100338.94;;;24.95;100.00
38718;BME280;24468;52.128;9.278;2023-06-26T05:39:18;100336.06;;;25.13;100.00
38718;BME280;24468;52.128;9.278;2023-06-26T05:41:44;100335.88;;;25.14;100.00
38718;BME280;24468;52.128;9.278;2023-06-26T05:44:10;100341.84;;;24.85;100.00
38718;BME280;24468;52.128;9.278;2023-06-26T05:46:36;100348.75;;;24.89;100.00
38718;BME280;24468;52.128;9.278;2023-06-26T05:49:01;100342.59;;;25.12;100.00
38718;BME280;24468;52.128;9.278;2023-06-26T05:51:28;100344.16;;;25.06;100.00
38718;BME280;24468;52.128;9.278;2023-06-26T05:53:54;100343.19;;;25.15;100.00
38718;BME280;24468;52.128;9.278;2023-06-26T05:56:20;100336.84;;;25.31;100.00
38718;BME280;24468;52.128;9.278;2023-06-26T05:58:46;100315.78;;;25.30;100.00
38718;BME280;24468;52.128;9.278;2023-06-26T06:01:12;100317.59;;;25.05;100.00
38718;BME280;24468;52.128;9.278;2023-06-26T06:03:39;100323.94;;;25.40;100.00
38718;BME280;24468;52.128;9.278;2023-06-26T06:06:05;100321.34;;;24.96;100.00
38718;BME280;24468;52.128;9.278;2023-06-26T06:08:31;100320.38;;;25.13;100.00
38718;BME280;24468;52.128;9.278;2023-06-26T06:10:57;100316.66;;;25.47;100.00
38718;BME280;24468;52.128;9.278;2023-06-26T06:13:23;100313.88;;;25.31;100.00
38718;BME280;24468;52.128;9.278;2023-06-26T06:15:49;100315.25;;;25.18;100.00
38718;BME280;24468;52.128;9.278;2023-06-26T06:18:14;100316.28;;;25.25;100.00
38718;BME280;24468;52.128;9.278;2023-06-26T06:20:40;100315.63;;;25.32;100.00
38718;BME280;24468;52.128;9.278;2023-06-26T06:23:06;100316.66;;;25.47;100.00
38718;BME280;24468;52.128;9.278;2023-06-26T06:25:32;100319.25;;;25.40;100.00
38718;BME280;24468;52.128;9.278;2023-06-26T06:27:57;100323.56;;;25.26;100.00
38718;BME280;24468;52.128;9.278;2023-06-26T06:30:23;100314.56;;;25.24;100.00
38718;BME280;24468;52.128;9.278;2023-06-26T06:32:48;100320.66;;;25.69;100.00
38718;BME280;24468;52.128;9.278;2023-06-26T06:35:20;100312.75;;;26.07;100.00
38718;BME280;24468;52.128;9.278;2023-06-26T06:37:45;100319.13;;;26.15;100.00
38718;BME280;24468;52.128;9.278;2023-06-26T06:40:12;100318.56;;;26.45;100.00
38718;BME280;24468;52.128;9.278;2023-06-26T06:42:37;100316.22;;;26.17;100.00
38718;BME280;24468;52.128;9.278;2023-06-26T06:45:04;100311.16;;;26.29;100.00
38718;BME280;24468;52.128;9.278;2023-06-26T06:47:31;100311.13;;;26.45;100.00
38718;BME280;24468;52.128;9.278;2023-06-26T06:49:57;100312.13;;;26.77;100.00
38718;BME280;24468;52.128;9.278;2023-06-26T06:52:22;100309.75;;;26.49;100.00
38718;BME280;24468;52.128;9.278;2023-06-26T06:54:57;100317.28;;;26.80;100.00
38718;BME280;24468;52.128;9.278;2023-06-26T06:57:30;100310.50;;;26.91;100.00
38718;BME280;24468;52.128;9.278;2023-06-26T06:59:56;100307.94;;;26.81;100.00
38718;BME280;24468;52.128;9.278;2023-06-26T07:02:21;100304.03;;;26.98;100.00
38718;BME280;24468;52.128;9.278;2023-06-26T07:04:47;100310.44;;;27.38;100.00
38718;BME280;24468;52.128;9.278;2023-06-26T07:07:13;100303.00;;;26.99;97.25
38718;BME280;24468;52.128;9.278;2023-06-26T07:09:41;100305.34;;;27.19;94.35
38718;BME280;24468;52.128;9.278;2023-06-26T07:12:07;100306.16;;;26.96;95.07
38718;BME280;24468;52.128;9.278;2023-06-26T07:14:32;100319.88;;;26.73;92.11
38718;BME280;24468;52.128;9.278;2023-06-26T07:16:58;100312.47;;;26.66;88.96
38718;BME280;24468;52.128;9.278;2023-06-26T07:19:23;100313.03;;;27.00;88.01
38718;BME280;24468;52.128;9.278;2023-06-26T07:21:49;100308.84;;;26.65;88.80
38718;BME280;24468;52.128;9.278;2023-06-26T07:24:14;100316.06;;;26.82;87.28
38718;BME280;24468;52.128;9.278;2023-06-26T07:26:40;100297.78;;;26.65;86.08
38718;BME280;24468;52.128;9.278;2023-06-26T07:29:05;100305.56;;;26.70;83.85
38718;BME280;24468;52.128;9.278;2023-06-26T07:31:32;100302.13;;;26.43;85.08
38718;BME280;24468;52.128;9.278;2023-06-26T07:33:57;100313.22;;;26.35;86.63
38718;BME280;24468;52.128;9.278;2023-06-26T07:36:23;100312.50;;;26.57;87.69
38718;BME280;24468;52.128;9.278;2023-06-26T07:38:48;100312.44;;;26.74;87.52
38718;BME280;24468;52.128;9.278;2023-06-26T07:41:14;100318.59;;;26.53;87.71
38718;BME280;24468;52.128;9.278;2023-06-26T07:43:39;100311.16;;;26.53;88.88
38718;BME280;24468;52.128;9.278;2023-06-26T07:46:05;100315.31;;;26.41;87.39
38718;BME280;24468;52.128;9.278;2023-06-26T07:48:30;100309.72;;;26.57;88.16
38718;BME280;24468;52.128;9.278;2023-06-26T07:50:56;100324.25;;;26.68;88.63
38718;BME280;24468;52.128;9.278;2023-06-26T07:53:22;100326.78;;;26.86;90.03
38718;BME280;24468;52.128;9.278;2023-06-26T07:55:47;100313.47;;;27.12;91.63
38718;BME280;24468;52.128;9.278;2023-06-26T07:58:13;100327.31;;;26.81;88.71
38718;BME280;24468;52.128;9.278;2023-06-26T08:00:38;100311.28;;;26.60;86.32
38718;BME280;24468;52.128;9.278;2023-06-26T08:03:04;100308.97;;;26.80;87.32
38718;BME280;24468;52.128;9.278;2023-06-26T08:05:29;100305.41;;;27.02;86.53
38718;BME280;24468;52.128;9.278;2023-06-26T08:07:55;100308.50;;;27.08;86.82
38718;BME280;24468;52.128;9.278;2023-06-26T08:10:20;100311.84;;;26.95;87.79
38718;BME280;24468;52.128;9.278;2023-06-26T08:12:46;100314.75;;;27.10;87.50
38718;BME280;24468;52.128;9.278;2023-06-26T08:15:12;100312.28;;;27.46;88.31
38718;BME280;24468;52.128;9.278;2023-06-26T08:17:38;100326.47;;;27.20;90.09
38718;BME280;24468;52.128;9.278;2023-06-26T08:20:04;100325.03;;;26.84;91.05
38718;BME280;24468;52.128;9.278;2023-06-26T08:22:30;100336.63;;;26.88;93.60
38718;BME280;24468;52.128;9.278;2023-06-26T08:24:56;100337.13;;;26.92;95.08
38718;BME280;24468;52.128;9.278;2023-06-26T08:27:22;100332.88;;;26.73;92.98
38718;BME280;24468;52.128;9.278;2023-06-26T08:29:48;100334.44;;;27.06;91.80
38718;BME280;24468;52.128;9.278;2023-06-26T08:32:13;100346.09;;;27.02;91.58
38718;BME280;24468;52.128;9.278;2023-06-26T08:34:39;100338.41;;;27.20;90.43
38718;BME280;24468;52.128;9.278;2023-06-26T08:37:05;100345.66;;;27.53;86.81
38718;BME280;24468;52.128;9.278;2023-06-26T08:39:30;100346.97;;;27.65;87.11
38718;BME280;24468;52.128;9.278;2023-06-26T08:41:56;100362.66;;;27.49;88.96
38718;BME280;24468;52.128;9.278;2023-06-26T08:44:22;100383.59;;;27.75;92.49
38718;BME280;24468;52.128;9.278;2023-06-26T08:46:51;100367.84;;;27.21;87.40
38718;BME280;24468;52.128;9.278;2023-06-26T08:49:51;100375.47;;;26.55;86.26
38718;BME280;24468;52.128;9.278;2023-06-26T08:52:30;100378.09;;;27.04;86.58
38718;BME280;24468;52.128;9.278;2023-06-26T08:54:58;100376.59;;;27.33;87.98
38718;BME280;24468;52.128;9.278;2023-06-26T08:57:26;100386.13;;;26.83;90.05
38718;BME280;24468;52.128;9.278;2023-06-26T08:59:53;100387.25;;;26.33;92.89
38718;BME280;24468;52.128;9.278;2023-06-26T09:02:19;100390.00;;;26.25;95.38
38718;BME280;24468;52.128;9.278;2023-06-26T09:04:48;100405.91;;;26.14;97.40
38718;BME280;24468;52.128;9.278;2023-06-26T09:07:17;100396.91;;;26.29;96.09
38718;BME280;24468;52.128;9.278;2023-06-26T09:09:43;100392.94;;;26.31;99.32
38718;BME280;24468;52.128;9.278;2023-06-26T09:12:09;100392.94;;;26.31;100.00
38718;BME280;24468;52.128;9.278;2023-06-26T09:14:37;100398.97;;;26.02;100.00
38718;BME280;24468;52.128;9.278;2023-06-26T09:17:03;100396.19;;;25.86;100.00
38718;BME280;24468;52.128;9.278;2023-06-26T09:19:29;100407.63;;;26.15;100.00
38718;BME280;24468;52.128;9.278;2023-06-26T09:21:54;100400.72;;;25.95;100.00
38718;BME280;24468;52.128;9.278;2023-06-26T09:24:21;100398.31;;;26.33;100.00
38718;BME280;24468;52.128;9.278;2023-06-26T09:26:47;100406.25;;;26.11;100.00
38718;BME280;24468;52.128;9.278;2023-06-26T09:29:14;100423.00;;;26.10;100.00
38718;BME280;24468;52.128;9.278;2023-06-26T09:31:40;100422.50;;;26.31;100.00
38718;BME280;24468;52.128;9.278;2023-06-26T09:34:06;100429.56;;;26.09;100.00
38718;BME280;24468;52.128;9.278;2023-06-26T09:36:33;100451.13;;;25.97;100.00
38718;BME280;24468;52.128;9.278;2023-06-26T09:39:01;100444.41;;;26.00;100.00
38718;BME280;24468;52.128;9.278;2023-06-26T09:41:26;100447.34;;;25.90;100.00
38718;BME280;24468;52.128;9.278;2023-06-26T09:43:52;100458.44;;;25.64;100.00
38718;BME280;24468;52.128;9.278;2023-06-26T09:46:25;100453.22;;;25.44;100.00
38718;BME280;24468;52.128;9.278;2023-06-26T09:49:10;100463.22;;;25.37;100.00
38718;BME280;24468;52.128;9.278;2023-06-26T09:51:38;100469.59;;;25.38;100.00
38718;BME280;24468;52.128;9.278;2023-06-26T09:54:05;100474.97;;;24.87;100.00
38718;BME280;24468;52.128;9.278;2023-06-26T09:56:32;100477.41;;;24.64;100.00
38718;BME280;24468;52.128;9.278;2023-06-26T09:59:03;100474.50;;;24.66;100.00
38718;BME280;24468;52.128;9.278;2023-06-26T10:01:31;100494.19;;;23.99;100.00
38718;BME280;24468;52.128;9.278;2023-06-26T10:03:57;100491.97;;;23.85;100.00
38718;BME280;24468;52.128;9.278;2023-06-26T10:06:41;100484.34;;;23.96;100.00
38718;BME280;24468;52.128;9.278;2023-06-26T10:09:06;100480.63;;;23.88;100.00
38718;BME280;24468;52.128;9.278;2023-06-26T10:11:40;100481.94;;;24.47;100.00
38718;BME280;24468;52.128;9.278;2023-06-26T10:14:07;100474.69;;;24.72;100.00
38718;BME280;24468;52.128;9.278;2023-06-26T10:16:36;100476.88;;;24.87;100.00
38718;BME280;24468;52.128;9.278;2023-06-26T10:19:06;100467.16;;;25.08;100.00
38718;BME280;24468;52.128;9.278;2023-06-26T10:21:34;100468.00;;;25.27;100.00
38718;BME280;24468;52.128;9.278;2023-06-26T10:24:00;100475.47;;;25.35;100.00
38718;BME280;24468;52.128;9.278;2023-06-26T10:26:28;100471.00;;;24.90;100.00
38718;BME280;24468;52.128;9.278;2023-06-26T10:28:55;100472.50;;;25.02;100.00
38718;BME280;24468;52.128;9.278;2023-06-26T10:35:06;100495.25;;;24.52;100.00
38718;BME280;24468;52.128;9.278;2023-06-26T10:37:49;100486.66;;;24.81;100.00
38718;BME280;24468;52.128;9.278;2023-06-26T10:40:23;100480.75;;;24.76;100.00
38718;BME280;24468;52.128;9.278;2023-06-26T10:42:50;100478.09;;;24.92;100.00
38718;BME280;24468;52.128;9.278;2023-06-26T10:45:19;100479.25;;;25.42;100.00
38718;BME280;24468;52.128;9.278;2023-06-26T10:47:51;100482.63;;;25.54;100.00
38718;BME280;24468;52.128;9.278;2023-06-26T10:50:24;100486.09;;;25.03;100.00
38718;BME280;24468;52.128;9.278;2023-06-26T10:53:11;100489.00;;;24.94;100.00
38718;BME280;24468;52.128;9.278;2023-06-26T10:56:03;100480.41;;;24.53;100.00
38718;BME280;24468;52.128;9.278;2023-06-26T10:58:33;100484.47;;;24.93;100.00
38718;BME280;24468;52.128;9.278;2023-06-26T11:06:23;100492.56;;;25.38;100.00
38718;BME280;24468;52.128;9.278;2023-06-26T11:08:53;100498.00;;;25.22;100.00
38718;BME280;24468;52.128;9.278;2023-06-26T11:11:22;100497.19;;;25.12;100.00
38718;BME280;24468;52.128;9.278;2023-06-26T11:14:06;100497.03;;;24.87;100.00
38718;BME280;24468;52.128;9.278;2023-06-26T11:16:33;100502.94;;;24.92;100.00
38718;BME280;24468;52.128;9.278;2023-06-26T11:18:59;100506.88;;;24.90;100.00
38718;BME280;24468;52.128;9.278;2023-06-26T11:21:25;100506.41;;;24.94;100.00
38718;BME280;24468;52.128;9.278;2023-06-26T11:23:52;100510.34;;;24.92;100.00
38718;BME280;24468;52.128;9.278;2023-06-26T11:26:20;100523.34;;;24.37;100.00
38718;BME280;24468;52.128;9.278;2023-06-26T11:28:55;100517.66;;;24.03;100.00
38718;BME280;24468;52.128;9.278;2023-06-26T11:31:29;100524.97;;;24.12;100.00
38718;BME280;24468;52.128;9.278;2023-06-26T11:34:00;100530.34;;;24.32;100.00
38718;BME280;24468;52.128;9.278;2023-06-26T11:36:27;100534.09;;;24.13;100.00
38718;BME280;24468;52.128;9.278;2023-06-26T11:39:01;100525.22;;;24.01;100.00
38718;BME280;24468;52.128;9.278;2023-06-26T11:41:31;100524.75;;;24.24;100.00
38718;BME280;24468;52.128;9.278;2023-06-26T11:44:05;100523.50;;;24.72;100.00
38718;BME280;24468;52.128;9.278;2023-06-26T11:46:31;100515.78;;;25.01;100.00
38718;BME280;24468;52.128;9.278;2023-06-26T11:48:57;100523.03;;;24.58;100.00
38718;BME280;24468;52.128;9.278;2023-06-26T11:51:23;100546.41;;;24.36;100.00
38718;BME280;24468;52.128;9.278;2023-06-26T11:53:52;100532.63;;;24.36;100.00
38718;BME280;24468;52.128;9.278;2023-06-26T11:56:18;100544.41;;;24.56;100.00
38718;BME280;24468;52.128;9.278;2023-06-26T11:59:14;100544.25;;;24.58;100.00
38718;BME280;24468;52.128;9.278;2023-06-26T12:01:42;100530.16;;;24.87;100.00
38718;BME280;24468;52.128;9.278;2023-06-26T12:04:12;100536.50;;;25.23;100.00
38718;BME280;24468;52.128;9.278;2023-06-26T12:06:40;100537.50;;;25.48;100.00
38718;BME280;24468;52.128;9.278;2023-06-26T12:09:10;100551.88;;;24.64;100.00
38718;BME280;24468;52.128;9.278;2023-06-26T12:11:41;100556.22;;;24.49;100.00
38718;BME280;24468;52.128;9.278;2023-06-26T12:14:08;100553.38;;;24.58;100.00
38718;BME280;24468;52.128;9.278;2023-06-26T12:16:35;100549.97;;;24.11;100.00
38718;BME280;24468;52.128;9.278;2023-06-26T12:19:02;100548.94;;;24.12;100.00
38718;BME280;24468;52.128;9.278;2023-06-26T12:24:04;100564.22;;;24.42;100.00
38718;BME280;24468;52.128;9.278;2023-06-26T12:26:30;100558.16;;;24.38;100.00
38718;BME280;24468;52.128;9.278;2023-06-26T12:29:07;100572.88;;;24.29;100.00
38718;BME280;24468;52.128;9.278;2023-06-26T12:31:34;100562.72;;;24.12;99.82
38718;BME280;24468;52.128;9.278;2023-06-26T12:34:00;100557.25;;;24.66;99.19
38718;BME280;24468;52.128;9.278;2023-06-26T12:36:26;100560.28;;;24.80;98.55
38718;BME280;24468;52.128;9.278;2023-06-26T12:38:54;100552.59;;;24.66;100.00
38718;BME280;24468;52.128;9.278;2023-06-26T12:41:19;100556.81;;;24.96;93.02
38718;BME280;24468;52.128;9.278;2023-06-26T12:43:46;100557.25;;;25.10;84.16
38718;BME280;24468;52.128;9.278;2023-06-26T12:46:12;100547.63;;;25.40;85.16
38718;BME280;24468;52.128;9.278;2023-06-26T12:48:44;100551.88;;;25.60;82.60
38718;BME280;24468;52.128;9.278;2023-06-26T12:51:14;100555.25;;;26.31;82.45
38718;BME280;24468;52.128;9.278;2023-06-26T12:53:40;100554.78;;;25.85;75.62
38718;BME280;24468;52.128;9.278;2023-06-26T12:56:07;100555.53;;;26.03;71.97
38718;BME280;24468;52.128;9.278;2023-06-26T12:58:37;100539.97;;;26.02;69.52